This is the latest recevied weather packets stored in our database for station/object OK1VCF-6. If no packets are shown the sender has not sent any weather packets the latest 10 day(s).
| Time | Temp. | Humidity | Pressure | Rain* | Wind** | Luminosity | Snow |
|---|---|---|---|---|---|---|---|
| 1777512413 | -1.67° C | 77% | 1030.4 hPa | - | - | - | - |
| 1777509701 | -1.67° C | 74% | 1030.4 hPa | - | - | - | - |
| 1777506092 | -1.11° C | 76% | 1030.5 hPa | - | - | - | - |
| 1777504287 | -1.11° C | 74% | 1030.5 hPa | - | - | - | - |
| 1777503391 | -1.11° C | 74% | 1030.4 hPa | - | - | - | - |
| 1777500685 | -1.11° C | 72% | 1030.2 hPa | - | - | - | - |
| 1777497973 | 0° C | 69% | 1029.9 hPa | - | - | - | - |
| 1777481679 | 8.89° C | 38% | 1027.6 hPa | - | - | - | - |
| 1777476270 | 8.89° C | 40% | 1027.4 hPa | - | - | - | - |
| 1777467258 | 8.89° C | 42% | 1027.2 hPa | - | - | - | - |
| 1777466362 | 7.78° C | 40% | 1027 hPa | - | - | - | - |
| 1777456304 | 6.67° C | 43% | 1027 hPa | - | - | - | - |
| 1777444563 | 4.44° C | 60% | 1026.2 hPa | - | - | - | - |
| 1777439248 | 0.56° C | 74% | 1025.4 hPa | - | - | - | - |
| 1777439159 | 0.56° C | 74% | 1025.4 hPa | - | - | - | - |
| 1777431040 | 1.11° C | 66% | 1025.1 hPa | - | - | - | - |
| 1777423953 | 0.56° C | 70% | 1024.6 hPa | - | - | - | - |
| 1777423839 | 0.56° C | 70% | 1024.6 hPa | - | - | - | - |
| 1777421138 | 1.11° C | 66% | 1024.4 hPa | - | - | - | - |
| 1777403075 | 6.67° C | 44% | 1023.6 hPa | - | - | - | - |
| 1777402358 | 6.67° C | 45% | 1023.3 hPa | - | - | - | - |
| 1777402177 | 6.67° C | 45% | 1023.3 hPa | - | - | - | - |
| 1777394892 | 12.22° C | 38% | 1022.4 hPa | - | - | - | - |
| 1777391296 | 13.33° C | 38% | 1022.4 hPa | - | - | - | - |
| 1777385865 | 13.33° C | 48% | 1022.7 hPa | - | - | - | - |
* Rain since midnight (hover to see other rain measurements)
** Current wind speed in m/s (hover to see current wind gust speed)